sensor_id;sensor_type;location;lat;lon;timestamp;P1;durP1;ratioP1;P2;durP2;ratioP2
42886;SDS011;29032;56.028;92.904;2023-04-03T00:00:25;3.73;;;2.27;;
42886;SDS011;29032;56.028;92.904;2023-04-03T00:05:27;3.20;;;2.43;;
42886;SDS011;29032;56.028;92.904;2023-04-03T00:10:49;4.93;;;2.37;;
42886;SDS011;29032;56.028;92.904;2023-04-03T00:16:09;5.10;;;2.90;;
42886;SDS011;29032;56.028;92.904;2023-04-03T00:21:13;5.70;;;2.83;;
42886;SDS011;29032;56.028;92.904;2023-04-03T00:26:17;4.83;;;2.60;;
42886;SDS011;29032;56.028;92.904;2023-04-03T00:31:19;4.23;;;2.80;;
42886;SDS011;29032;56.028;92.904;2023-04-03T00:36:21;7.60;;;2.57;;
42886;SDS011;29032;56.028;92.904;2023-04-03T00:41:43;2.77;;;2.23;;
42886;SDS011;29032;56.028;92.904;2023-04-03T00:46:45;4.80;;;2.73;;
42886;SDS011;29032;56.028;92.904;2023-04-03T00:51:47;6.37;;;2.90;;
42886;SDS011;29032;56.028;92.904;2023-04-03T00:56:51;11.53;;;4.10;;
42886;SDS011;29032;56.028;92.904;2023-04-03T01:01:56;7.13;;;3.10;;
42886;SDS011;29032;56.028;92.904;2023-04-03T01:07:00;5.53;;;3.30;;
42886;SDS011;29032;56.028;92.904;2023-04-03T01:12:18;6.77;;;2.87;;
42886;SDS011;29032;56.028;92.904;2023-04-03T01:17:30;5.07;;;2.90;;
42886;SDS011;29032;56.028;92.904;2023-04-03T01:22:34;3.23;;;2.07;;
42886;SDS011;29032;56.028;92.904;2023-04-03T01:27:47;4.67;;;2.40;;
42886;SDS011;29032;56.028;92.904;2023-04-03T01:32:50;4.90;;;2.27;;
42886;SDS011;29032;56.028;92.904;2023-04-03T01:37:53;6.27;;;2.37;;
42886;SDS011;29032;56.028;92.904;2023-04-03T01:43:14;6.13;;;2.10;;
42886;SDS011;29032;56.028;92.904;2023-04-03T01:48:18;3.80;;;2.17;;
42886;SDS011;29032;56.028;92.904;2023-04-03T01:53:39;5.57;;;1.60;;
42886;SDS011;29032;56.028;92.904;2023-04-03T01:58:42;3.93;;;2.10;;
42886;SDS011;29032;56.028;92.904;2023-04-03T02:04:05;3.97;;;2.30;;
42886;SDS011;29032;56.028;92.904;2023-04-03T02:09:26;9.00;;;3.40;;
42886;SDS011;29032;56.028;92.904;2023-04-03T02:14:46;10.50;;;3.63;;
42886;SDS011;29032;56.028;92.904;2023-04-03T02:25:11;6.23;;;3.10;;
42886;SDS011;29032;56.028;92.904;2023-04-03T02:30:32;5.27;;;2.53;;
42886;SDS011;29032;56.028;92.904;2023-04-03T02:35:35;4.30;;;2.63;;
42886;SDS011;29032;56.028;92.904;2023-04-03T02:40:38;5.73;;;3.47;;
42886;SDS011;29032;56.028;92.904;2023-04-03T02:46:00;6.93;;;1.90;;
42886;SDS011;29032;56.028;92.904;2023-04-03T02:56:44;5.77;;;2.50;;
42886;SDS011;29032;56.028;92.904;2023-04-03T03:01:47;4.63;;;2.57;;
42886;SDS011;29032;56.028;92.904;2023-04-03T03:06:50;2.77;;;2.03;;
42886;SDS011;29032;56.028;92.904;2023-04-03T03:11:53;6.40;;;1.93;;
42886;SDS011;29032;56.028;92.904;2023-04-03T03:16:55;2.90;;;1.87;;
42886;SDS011;29032;56.028;92.904;2023-04-03T03:21:59;3.63;;;1.63;;
42886;SDS011;29032;56.028;92.904;2023-04-03T03:27:20;8.13;;;2.77;;
42886;SDS011;29032;56.028;92.904;2023-04-03T03:32:41;4.03;;;1.70;;
42886;SDS011;29032;56.028;92.904;2023-04-03T03:37:44;8.10;;;2.20;;
42886;SDS011;29032;56.028;92.904;2023-04-03T03:43:06;3.70;;;2.30;;
42886;SDS011;29032;56.028;92.904;2023-04-03T03:48:27;4.00;;;2.17;;
42886;SDS011;29032;56.028;92.904;2023-04-03T03:53:50;4.77;;;1.80;;
42886;SDS011;29032;56.028;92.904;2023-04-03T03:58:54;5.33;;;2.23;;
42886;SDS011;29032;56.028;92.904;2023-04-03T04:21:19;5.70;;;1.63;;
42886;SDS011;29032;56.028;92.904;2023-04-03T04:26:41;3.10;;;2.00;;
42886;SDS011;29032;56.028;92.904;2023-04-03T04:32:04;4.93;;;2.20;;
42886;SDS011;29032;56.028;92.904;2023-04-03T04:37:07;2.73;;;1.87;;
42886;SDS011;29032;56.028;92.904;2023-04-03T04:42:10;3.37;;;2.23;;
42886;SDS011;29032;56.028;92.904;2023-04-03T04:47:32;5.90;;;2.20;;
42886;SDS011;29032;56.028;92.904;2023-04-03T04:52:35;5.57;;;2.10;;
42886;SDS011;29032;56.028;92.904;2023-04-03T04:57:55;4.30;;;2.17;;
42886;SDS011;29032;56.028;92.904;2023-04-03T05:02:59;7.00;;;2.67;;
42886;SDS011;29032;56.028;92.904;2023-04-03T05:08:02;4.73;;;2.07;;
42886;SDS011;29032;56.028;92.904;2023-04-03T05:13:23;1.67;;;1.47;;
42886;SDS011;29032;56.028;92.904;2023-04-03T05:18:27;3.23;;;1.97;;
42886;SDS011;29032;56.028;92.904;2023-04-03T05:23:32;4.25;;;1.50;;
42886;SDS011;29032;56.028;92.904;2023-04-03T05:28:37;4.17;;;1.43;;
42886;SDS011;29032;56.028;92.904;2023-04-03T05:33:42;2.93;;;1.60;;
42886;SDS011;29032;56.028;92.904;2023-04-03T05:38:50;9.17;;;2.80;;
42886;SDS011;29032;56.028;92.904;2023-04-03T05:44:12;3.83;;;2.10;;
42886;SDS011;29032;56.028;92.904;2023-04-03T05:49:17;2.53;;;2.00;;
42886;SDS011;29032;56.028;92.904;2023-04-03T05:54:21;2.23;;;1.43;;
42886;SDS011;29032;56.028;92.904;2023-04-03T05:59:27;2.80;;;2.20;;
42886;SDS011;29032;56.028;92.904;2023-04-03T06:09:55;1.70;;;1.43;;
42886;SDS011;29032;56.028;92.904;2023-04-03T06:14:58;2.70;;;1.93;;
42886;SDS011;29032;56.028;92.904;2023-04-03T06:20:02;4.27;;;2.13;;
42886;SDS011;29032;56.028;92.904;2023-04-03T06:25:05;4.10;;;2.10;;
42886;SDS011;29032;56.028;92.904;2023-04-03T06:30:09;5.30;;;2.27;;
42886;SDS011;29032;56.028;92.904;2023-04-03T06:35:14;3.63;;;2.57;;
42886;SDS011;29032;56.028;92.904;2023-04-03T06:40:17;6.60;;;2.10;;
42886;SDS011;29032;56.028;92.904;2023-04-03T06:45:23;3.13;;;2.00;;
42886;SDS011;29032;56.028;92.904;2023-04-03T06:50:26;6.03;;;2.33;;
42886;SDS011;29032;56.028;92.904;2023-04-03T06:55:29;4.23;;;2.37;;
42886;SDS011;29032;56.028;92.904;2023-04-03T07:00:32;3.50;;;2.10;;
42886;SDS011;29032;56.028;92.904;2023-04-03T07:10:58;2.77;;;2.13;;
42886;SDS011;29032;56.028;92.904;2023-04-03T07:16:01;3.73;;;1.93;;
42886;SDS011;29032;56.028;92.904;2023-04-03T07:21:05;4.20;;;2.00;;
42886;SDS011;29032;56.028;92.904;2023-04-03T07:26:25;6.77;;;2.13;;
42886;SDS011;29032;56.028;92.904;2023-04-03T07:31:47;4.77;;;2.20;;
42886;SDS011;29032;56.028;92.904;2023-04-03T07:36:50;2.80;;;2.07;;
42886;SDS011;29032;56.028;92.904;2023-04-03T07:42:11;5.40;;;2.30;;
42886;SDS011;29032;56.028;92.904;2023-04-03T07:47:33;3.73;;;2.30;;
42886;SDS011;29032;56.028;92.904;2023-04-03T07:52:37;4.57;;;2.43;;
42886;SDS011;29032;56.028;92.904;2023-04-03T07:57:39;7.07;;;3.20;;
42886;SDS011;29032;56.028;92.904;2023-04-03T08:03:01;7.53;;;2.93;;
42886;SDS011;29032;56.028;92.904;2023-04-03T08:08:05;3.63;;;2.30;;
42886;SDS011;29032;56.028;92.904;2023-04-03T08:13:09;5.60;;;2.83;;
42886;SDS011;29032;56.028;92.904;2023-04-03T08:18:30;3.10;;;2.10;;
42886;SDS011;29032;56.028;92.904;2023-04-03T08:23:34;8.40;;;3.20;;
42886;SDS011;29032;56.028;92.904;2023-04-03T08:28:56;5.53;;;3.27;;
42886;SDS011;29032;56.028;92.904;2023-04-03T08:33:58;4.77;;;2.20;;
42886;SDS011;29032;56.028;92.904;2023-04-03T08:39:01;4.47;;;2.00;;
42886;SDS011;29032;56.028;92.904;2023-04-03T08:44:08;4.70;;;2.60;;
42886;SDS011;29032;56.028;92.904;2023-04-03T08:49:26;5.70;;;2.13;;
42886;SDS011;29032;56.028;92.904;2023-04-03T08:54:35;4.03;;;2.08;;
42886;SDS011;29032;56.028;92.904;2023-04-03T09:00:03;4.47;;;2.70;;
42886;SDS011;29032;56.028;92.904;2023-04-03T09:05:39;6.03;;;3.60;;
42886;SDS011;29032;56.028;92.904;2023-04-03T09:10:47;5.87;;;2.80;;
42886;SDS011;29032;56.028;92.904;2023-04-03T09:16:33;9.80;;;3.37;;
42886;SDS011;29032;56.028;92.904;2023-04-03T09:22:01;10.00;;;3.63;;
42886;SDS011;29032;56.028;92.904;2023-04-03T09:27:43;5.93;;;2.57;;
42886;SDS011;29032;56.028;92.904;2023-04-03T09:33:04;8.97;;;3.00;;
42886;SDS011;29032;56.028;92.904;2023-04-03T09:44:02;4.57;;;2.47;;
42886;SDS011;29032;56.028;92.904;2023-04-03T09:49:23;7.53;;;2.90;;
42886;SDS011;29032;56.028;92.904;2023-04-03T09:54:32;8.83;;;3.73;;
42886;SDS011;29032;56.028;92.904;2023-04-03T09:59:38;9.00;;;3.90;;
42886;SDS011;29032;56.028;92.904;2023-04-03T10:04:46;6.30;;;3.63;;
42886;SDS011;29032;56.028;92.904;2023-04-03T10:09:54;6.13;;;2.80;;
42886;SDS011;29032;56.028;92.904;2023-04-03T10:15:17;6.30;;;3.40;;
42886;SDS011;29032;56.028;92.904;2023-04-03T10:20:23;8.10;;;3.70;;
42886;SDS011;29032;56.028;92.904;2023-04-03T10:25:32;7.13;;;3.53;;
42886;SDS011;29032;56.028;92.904;2023-04-03T10:30:45;8.23;;;4.20;;
42886;SDS011;29032;56.028;92.904;2023-04-03T10:35:53;9.63;;;4.70;;
42886;SDS011;29032;56.028;92.904;2023-04-03T10:41:07;8.30;;;4.53;;
42886;SDS011;29032;56.028;92.904;2023-04-03T10:46:20;7.43;;;3.80;;
42886;SDS011;29032;56.028;92.904;2023-04-03T10:51:48;7.83;;;3.87;;
42886;SDS011;29032;56.028;92.904;2023-04-03T10:57:01;7.30;;;3.93;;
42886;SDS011;29032;56.028;92.904;2023-04-03T11:02:07;7.57;;;4.10;;
42886;SDS011;29032;56.028;92.904;2023-04-03T11:12:41;9.60;;;4.50;;
42886;SDS011;29032;56.028;92.904;2023-04-03T11:18:06;8.03;;;3.83;;
42886;SDS011;29032;56.028;92.904;2023-04-03T11:23:13;6.13;;;3.83;;
42886;SDS011;29032;56.028;92.904;2023-04-03T11:28:40;10.13;;;4.60;;
42886;SDS011;29032;56.028;92.904;2023-04-03T11:33:45;6.53;;;4.17;;
42886;SDS011;29032;56.028;92.904;2023-04-03T11:38:57;10.43;;;4.47;;
42886;SDS011;29032;56.028;92.904;2023-04-03T11:44:03;12.07;;;4.80;;
42886;SDS011;29032;56.028;92.904;2023-04-03T11:49:10;11.13;;;4.70;;
42886;SDS011;29032;56.028;92.904;2023-04-03T11:54:50;9.33;;;4.77;;
42886;SDS011;29032;56.028;92.904;2023-04-03T11:59:52;12.63;;;6.00;;
42886;SDS011;29032;56.028;92.904;2023-04-03T12:16:26;7.73;;;4.30;;
42886;SDS011;29032;56.028;92.904;2023-04-03T12:22:07;8.40;;;4.60;;
42886;SDS011;29032;56.028;92.904;2023-04-03T12:27:34;12.97;;;6.47;;
42886;SDS011;29032;56.028;92.904;2023-04-03T12:38:49;8.57;;;4.53;;
42886;SDS011;29032;56.028;92.904;2023-04-03T12:44:08;17.07;;;4.93;;
42886;SDS011;29032;56.028;92.904;2023-04-03T12:49:30;11.63;;;5.90;;
42886;SDS011;29032;56.028;92.904;2023-04-03T12:54:52;14.47;;;7.00;;
42886;SDS011;29032;56.028;92.904;2023-04-03T13:00:25;10.33;;;5.37;;
42886;SDS011;29032;56.028;92.904;2023-04-03T13:05:31;10.13;;;4.70;;
42886;SDS011;29032;56.028;92.904;2023-04-03T13:10:54;9.77;;;5.67;;
42886;SDS011;29032;56.028;92.904;2023-04-03T13:16:01;13.13;;;7.10;;
42886;SDS011;29032;56.028;92.904;2023-04-03T13:21:12;16.90;;;6.70;;
42886;SDS011;29032;56.028;92.904;2023-04-03T13:31:41;13.20;;;6.40;;
42886;SDS011;29032;56.028;92.904;2023-04-03T13:36:44;13.23;;;5.80;;
42886;SDS011;29032;56.028;92.904;2023-04-03T13:42:14;10.43;;;5.77;;
42886;SDS011;29032;56.028;92.904;2023-04-03T13:53:11;13.30;;;7.00;;
42886;SDS011;29032;56.028;92.904;2023-04-03T13:58:21;11.87;;;5.97;;
42886;SDS011;29032;56.028;92.904;2023-04-03T14:03:29;14.33;;;7.53;;
42886;SDS011;29032;56.028;92.904;2023-04-03T14:08:52;11.53;;;5.50;;
42886;SDS011;29032;56.028;92.904;2023-04-03T14:14:10;12.20;;;5.37;;
42886;SDS011;29032;56.028;92.904;2023-04-03T14:19:34;13.10;;;4.60;;
42886;SDS011;29032;56.028;92.904;2023-04-03T14:24:36;8.23;;;5.37;;
42886;SDS011;29032;56.028;92.904;2023-04-03T14:29:39;13.43;;;6.00;;
42886;SDS011;29032;56.028;92.904;2023-04-03T14:35:02;10.00;;;5.40;;
42886;SDS011;29032;56.028;92.904;2023-04-03T14:40:05;11.33;;;6.60;;
42886;SDS011;29032;56.028;92.904;2023-04-03T14:45:10;18.07;;;6.80;;
42886;SDS011;29032;56.028;92.904;2023-04-03T14:50:34;11.70;;;5.23;;
42886;SDS011;29032;56.028;92.904;2023-04-03T14:55:56;12.00;;;5.90;;
42886;SDS011;29032;56.028;92.904;2023-04-03T15:17:23;7.63;;;3.70;;
42886;SDS011;29032;56.028;92.904;2023-04-03T15:22:27;11.30;;;4.33;;
42886;SDS011;29032;56.028;92.904;2023-04-03T15:27:29;10.30;;;4.47;;
42886;SDS011;29032;56.028;92.904;2023-04-03T15:37:53;10.03;;;4.53;;
42886;SDS011;29032;56.028;92.904;2023-04-03T15:42:55;17.63;;;6.17;;
42886;SDS011;29032;56.028;92.904;2023-04-03T15:48:17;8.50;;;4.13;;
42886;SDS011;29032;56.028;92.904;2023-04-03T15:53:21;9.93;;;4.27;;
42886;SDS011;29032;56.028;92.904;2023-04-03T15:58:42;10.93;;;4.13;;
42886;SDS011;29032;56.028;92.904;2023-04-03T16:04:04;8.43;;;4.37;;
42886;SDS011;29032;56.028;92.904;2023-04-03T16:09:11;6.50;;;4.20;;
42886;SDS011;29032;56.028;92.904;2023-04-03T16:14:13;11.17;;;4.07;;
42886;SDS011;29032;56.028;92.904;2023-04-03T16:19:15;12.03;;;4.53;;
42886;SDS011;29032;56.028;92.904;2023-04-03T16:24:19;8.50;;;3.20;;
42886;SDS011;29032;56.028;92.904;2023-04-03T16:29:21;9.23;;;4.27;;
42886;SDS011;29032;56.028;92.904;2023-04-03T16:34:43;9.77;;;4.27;;
42886;SDS011;29032;56.028;92.904;2023-04-03T16:39:47;5.57;;;2.87;;
42886;SDS011;29032;56.028;92.904;2023-04-03T16:44:49;8.90;;;4.17;;
42886;SDS011;29032;56.028;92.904;2023-04-03T16:49:51;8.70;;;2.87;;
42886;SDS011;29032;56.028;92.904;2023-04-03T16:54:55;6.80;;;2.73;;
42886;SDS011;29032;56.028;92.904;2023-04-03T17:00:16;5.20;;;2.97;;
42886;SDS011;29032;56.028;92.904;2023-04-03T17:05:38;7.50;;;3.00;;
42886;SDS011;29032;56.028;92.904;2023-04-03T17:11:16;4.77;;;2.83;;
42886;SDS011;29032;56.028;92.904;2023-04-03T17:16:39;8.20;;;3.20;;
42886;SDS011;29032;56.028;92.904;2023-04-03T17:21:41;6.23;;;2.47;;
42886;SDS011;29032;56.028;92.904;2023-04-03T17:26:46;7.13;;;3.37;;
42886;SDS011;29032;56.028;92.904;2023-04-03T17:31:48;6.93;;;3.20;;
42886;SDS011;29032;56.028;92.904;2023-04-03T17:36:51;7.53;;;2.87;;
42886;SDS011;29032;56.028;92.904;2023-04-03T17:42:14;3.60;;;2.37;;
42886;SDS011;29032;56.028;92.904;2023-04-03T17:47:53;4.33;;;2.33;;
42886;SDS011;29032;56.028;92.904;2023-04-03T17:53:15;6.53;;;3.17;;
42886;SDS011;29032;56.028;92.904;2023-04-03T17:58:18;6.87;;;3.27;;
42886;SDS011;29032;56.028;92.904;2023-04-03T18:03:20;2.53;;;2.10;;
42886;SDS011;29032;56.028;92.904;2023-04-03T18:08:22;5.87;;;2.10;;
42886;SDS011;29032;56.028;92.904;2023-04-03T18:13:26;5.00;;;2.60;;
42886;SDS011;29032;56.028;92.904;2023-04-03T18:18:29;7.83;;;3.07;;
42886;SDS011;29032;56.028;92.904;2023-04-03T18:23:51;3.80;;;2.40;;
42886;SDS011;29032;56.028;92.904;2023-04-03T18:28:57;5.20;;;3.33;;
42886;SDS011;29032;56.028;92.904;2023-04-03T18:34:03;7.60;;;2.80;;
42886;SDS011;29032;56.028;92.904;2023-04-03T18:44:28;3.13;;;2.53;;
42886;SDS011;29032;56.028;92.904;2023-04-03T18:49:32;4.73;;;2.90;;
42886;SDS011;29032;56.028;92.904;2023-04-03T18:59:59;4.40;;;2.40;;
42886;SDS011;29032;56.028;92.904;2023-04-03T19:05:01;4.60;;;2.67;;
42886;SDS011;29032;56.028;92.904;2023-04-03T19:10:04;2.90;;;2.40;;
42886;SDS011;29032;56.028;92.904;2023-04-03T19:15:28;3.90;;;2.93;;
42886;SDS011;29032;56.028;92.904;2023-04-03T19:20:50;8.30;;;4.50;;
42886;SDS011;29032;56.028;92.904;2023-04-03T19:25:58;5.70;;;3.10;;
42886;SDS011;29032;56.028;92.904;2023-04-03T19:31:09;3.63;;;2.40;;
42886;SDS011;29032;56.028;92.904;2023-04-03T19:36:12;4.63;;;2.13;;
42886;SDS011;29032;56.028;92.904;2023-04-03T19:41:34;4.50;;;2.40;;
42886;SDS011;29032;56.028;92.904;2023-04-03T19:46:58;2.87;;;2.20;;
42886;SDS011;29032;56.028;92.904;2023-04-03T19:52:01;4.67;;;2.67;;
42886;SDS011;29032;56.028;92.904;2023-04-03T19:57:05;5.53;;;2.97;;
42886;SDS011;29032;56.028;92.904;2023-04-03T20:02:09;4.43;;;2.53;;
42886;SDS011;29032;56.028;92.904;2023-04-03T20:12:51;6.53;;;2.53;;
42886;SDS011;29032;56.028;92.904;2023-04-03T20:18:15;2.70;;;2.00;;
42886;SDS011;29032;56.028;92.904;2023-04-03T20:23:20;4.50;;;2.40;;
42886;SDS011;29032;56.028;92.904;2023-04-03T20:28:23;6.43;;;3.10;;
42886;SDS011;29032;56.028;92.904;2023-04-03T20:33:45;3.20;;;2.30;;
42886;SDS011;29032;56.028;92.904;2023-04-03T20:38:47;6.20;;;3.13;;
42886;SDS011;29032;56.028;92.904;2023-04-03T20:43:49;3.87;;;2.13;;
42886;SDS011;29032;56.028;92.904;2023-04-03T20:49:30;4.30;;;2.67;;
42886;SDS011;29032;56.028;92.904;2023-04-03T20:54:34;5.50;;;2.40;;
42886;SDS011;29032;56.028;92.904;2023-04-03T20:59:36;4.93;;;2.30;;
42886;SDS011;29032;56.028;92.904;2023-04-03T21:04:40;3.33;;;2.43;;
42886;SDS011;29032;56.028;92.904;2023-04-03T21:21:16;5.70;;;2.50;;
42886;SDS011;29032;56.028;92.904;2023-04-03T21:26:19;5.20;;;2.50;;
42886;SDS011;29032;56.028;92.904;2023-04-03T21:31:48;4.80;;;2.50;;
42886;SDS011;29032;56.028;92.904;2023-04-03T21:42:52;5.23;;;2.80;;
42886;SDS011;29032;56.028;92.904;2023-04-03T21:53:35;4.40;;;2.47;;
42886;SDS011;29032;56.028;92.904;2023-04-03T21:58:37;4.20;;;2.77;;
42886;SDS011;29032;56.028;92.904;2023-04-03T22:03:40;4.23;;;2.50;;
42886;SDS011;29032;56.028;92.904;2023-04-03T22:08:45;5.57;;;2.90;;
42886;SDS011;29032;56.028;92.904;2023-04-03T22:13:49;7.30;;;3.80;;
42886;SDS011;29032;56.028;92.904;2023-04-03T22:19:11;5.70;;;3.27;;
42886;SDS011;29032;56.028;92.904;2023-04-03T22:24:15;4.73;;;2.83;;
42886;SDS011;29032;56.028;92.904;2023-04-03T22:29:17;4.33;;;2.30;;
42886;SDS011;29032;56.028;92.904;2023-04-03T22:34:19;6.93;;;3.20;;
42886;SDS011;29032;56.028;92.904;2023-04-03T22:39:42;7.57;;;2.13;;
42886;SDS011;29032;56.028;92.904;2023-04-03T22:44:44;4.40;;;2.20;;
42886;SDS011;29032;56.028;92.904;2023-04-03T22:49:46;4.87;;;2.50;;
42886;SDS011;29032;56.028;92.904;2023-04-03T22:54:49;3.37;;;2.40;;
42886;SDS011;29032;56.028;92.904;2023-04-03T23:00:10;6.17;;;2.90;;
42886;SDS011;29032;56.028;92.904;2023-04-03T23:05:31;5.00;;;2.30;;
42886;SDS011;29032;56.028;92.904;2023-04-03T23:10:54;3.50;;;3.03;;
42886;SDS011;29032;56.028;92.904;2023-04-03T23:15:57;7.47;;;3.07;;
42886;SDS011;29032;56.028;92.904;2023-04-03T23:21:19;5.53;;;3.50;;
42886;SDS011;29032;56.028;92.904;2023-04-03T23:26:22;6.80;;;3.43;;
42886;SDS011;29032;56.028;92.904;2023-04-03T23:31:44;8.10;;;4.10;;
42886;SDS011;29032;56.028;92.904;2023-04-03T23:36:46;13.53;;;4.97;;
42886;SDS011;29032;56.028;92.904;2023-04-03T23:42:09;8.63;;;3.93;;
42886;SDS011;29032;56.028;92.904;2023-04-03T23:47:11;12.03;;;4.73;;
42886;SDS011;29032;56.028;92.904;2023-04-03T23:52:14;10.00;;;4.50;;
42886;SDS011;29032;56.028;92.904;2023-04-03T23:57:17;8.50;;;3.90;;
